createdAt,value
2018-08-16T00:00:23.869Z,6.30
2018-08-16T00:02:53.149Z,7.40
2018-08-16T00:05:21.915Z,7.13
2018-08-16T00:07:50.772Z,7.33
2018-08-16T00:10:20.013Z,7.20
2018-08-16T00:12:49.862Z,7.13
2018-08-16T00:15:20.035Z,7.10
2018-08-16T00:17:48.875Z,7.00
2018-08-16T00:20:17.776Z,7.03
2018-08-16T00:22:47.245Z,7.27
2018-08-16T00:25:16.741Z,6.77
2018-08-16T00:27:45.655Z,6.37
2018-08-16T00:30:17.901Z,7.70
2018-08-16T00:32:47.241Z,6.77
2018-08-16T00:35:16.181Z,7.30
2018-08-16T00:37:45.231Z,7.30
2018-08-16T00:40:17.565Z,6.30
2018-08-16T00:42:46.360Z,6.97
2018-08-16T00:45:15.576Z,7.77
2018-08-16T00:47:44.636Z,7.23
2018-08-16T00:50:15.006Z,7.40
2018-08-16T00:52:43.831Z,6.27
2018-08-16T00:55:14.220Z,6.07
2018-08-16T00:57:43.515Z,6.83
2018-08-16T01:00:17.922Z,7.07
2018-08-16T01:02:47.188Z,7.03
2018-08-16T01:05:16.034Z,6.87
2018-08-16T01:07:44.821Z,6.93
2018-08-16T01:10:14.669Z,7.00
2018-08-16T01:12:44.328Z,6.53
2018-08-16T01:15:16.243Z,6.37
2018-08-16T01:17:45.072Z,6.17
2018-08-16T01:20:13.933Z,6.67
2018-08-16T01:22:43.036Z,6.97
2018-08-16T01:25:12.608Z,6.87
2018-08-16T01:27:41.503Z,7.00
2018-08-16T01:30:11.238Z,6.50
2018-08-16T01:32:40.063Z,6.37
2018-08-16T01:35:09.948Z,7.33
2018-08-16T01:37:39.212Z,6.23
2018-08-16T01:40:09.233Z,6.57
2018-08-16T01:42:38.849Z,6.50
2018-08-16T01:45:08.145Z,6.13
2018-08-16T01:47:36.964Z,6.17
2018-08-16T01:50:07.620Z,6.00
2018-08-16T01:52:36.340Z,6.57
2018-08-16T01:55:05.931Z,6.47
2018-08-16T01:57:35.178Z,5.87
2018-08-16T02:00:05.630Z,6.27
2018-08-16T02:02:34.440Z,6.53
2018-08-16T02:05:03.806Z,6.53
2018-08-16T02:07:32.654Z,6.80
2018-08-16T02:10:01.640Z,6.37
2018-08-16T02:12:30.410Z,6.23
2018-08-16T02:14:59.242Z,7.17
2018-08-16T02:17:28.527Z,7.13
2018-08-16T02:19:57.291Z,6.33
2018-08-16T02:22:25.982Z,7.30
2018-08-16T02:24:54.867Z,7.07
2018-08-16T02:27:23.669Z,7.37
2018-08-16T02:29:52.455Z,7.27
2018-08-16T02:32:21.608Z,7.40
2018-08-16T02:34:50.607Z,7.80
2018-08-16T02:37:19.726Z,8.37
2018-08-16T02:39:49.151Z,8.10
2018-08-16T02:42:17.847Z,7.73
2018-08-16T02:44:46.662Z,8.53
2018-08-16T02:47:15.678Z,7.63
2018-08-16T02:49:44.355Z,6.97
2018-08-16T02:52:13.010Z,7.13
2018-08-16T02:54:42.460Z,6.80
2018-08-16T02:57:11.405Z,7.33
2018-08-16T02:59:40.226Z,7.17
2018-08-16T03:02:09.268Z,6.63
2018-08-16T03:04:37.980Z,7.57
2018-08-16T03:07:07.295Z,6.77
2018-08-16T03:09:35.959Z,6.13
2018-08-16T03:12:04.907Z,7.17
2018-08-16T03:14:34.330Z,7.80
2018-08-16T03:17:03.245Z,7.23
2018-08-16T03:19:31.979Z,6.93
2018-08-16T03:22:00.803Z,7.17
2018-08-16T03:24:29.859Z,7.13
2018-08-16T03:26:58.672Z,8.00
2018-08-16T03:29:27.637Z,7.67
2018-08-16T03:31:56.505Z,8.00
2018-08-16T03:34:25.226Z,10.17
2018-08-16T03:36:54.386Z,9.23
2018-08-16T03:39:23.672Z,8.87
2018-08-16T03:41:58.147Z,9.73
2018-08-16T03:44:27.698Z,9.30
2018-08-16T03:46:56.478Z,9.30
2018-08-16T03:49:25.222Z,8.47
2018-08-16T03:51:53.977Z,9.07
2018-08-16T03:54:23.119Z,8.00
2018-08-16T03:56:51.972Z,7.83
2018-08-16T03:59:21.273Z,9.07
2018-08-16T04:01:50.078Z,8.00
2018-08-16T04:04:19.334Z,8.00
2018-08-16T04:06:48.378Z,9.00
2018-08-16T04:09:17.560Z,10.30
2018-08-16T04:11:46.700Z,9.80
2018-08-16T04:14:16.086Z,9.57
2018-08-16T04:16:44.822Z,8.00
2018-08-16T04:19:13.485Z,8.87
2018-08-16T04:21:42.672Z,9.20
2018-08-16T04:24:11.547Z,10.03
2018-08-16T04:26:40.511Z,9.60
2018-08-16T04:29:10.227Z,9.70
2018-08-16T04:31:39.105Z,8.40
2018-08-16T04:34:08.074Z,9.47
2018-08-16T04:36:37.319Z,8.80
2018-08-16T04:39:08.242Z,8.00
2018-08-16T04:41:37.949Z,13.67
2018-08-16T04:44:06.733Z,9.37
2018-08-16T04:46:35.520Z,8.63
2018-08-16T04:49:04.698Z,9.23
2018-08-16T04:51:33.465Z,8.43
2018-08-16T04:54:02.203Z,8.43
2018-08-16T04:56:31.295Z,9.57
2018-08-16T04:59:00.009Z,9.17
2018-08-16T05:01:28.641Z,10.17
2018-08-16T05:03:57.610Z,8.13
2018-08-16T05:06:26.766Z,9.17
2018-08-16T05:08:55.539Z,7.57
2018-08-16T05:11:24.817Z,8.83
2018-08-16T05:13:53.443Z,12.27
2018-08-16T05:16:22.529Z,10.03
2018-08-16T05:18:51.603Z,11.87
2018-08-16T05:21:20.231Z,9.47
2018-08-16T05:23:49.359Z,11.33
2018-08-16T05:26:18.840Z,12.23
2018-08-16T05:28:47.887Z,11.90
2018-08-16T05:31:16.643Z,11.90
2018-08-16T05:33:45.598Z,11.37
2018-08-16T05:36:14.792Z,11.90
2018-08-16T05:38:43.585Z,10.27
2018-08-16T05:41:12.882Z,10.63
2018-08-16T05:43:41.911Z,11.97
2018-08-16T05:46:10.527Z,12.10
2018-08-16T05:48:39.245Z,12.13
2018-08-16T05:51:08.247Z,11.70
2018-08-16T05:53:37.301Z,10.63
2018-08-16T05:56:06.287Z,11.00
2018-08-16T05:58:35.127Z,11.70
2018-08-16T06:01:04.319Z,11.27
2018-08-16T06:03:33.407Z,10.93
2018-08-16T06:06:02.365Z,10.57
2018-08-16T06:08:31.133Z,10.53
2018-08-16T06:10:59.991Z,10.77
2018-08-16T06:13:29.192Z,10.30
2018-08-16T06:15:57.979Z,10.80
2018-08-16T06:18:26.917Z,11.10
2018-08-16T06:20:55.907Z,11.37
2018-08-16T06:23:24.957Z,11.17
2018-08-16T06:25:53.775Z,11.67
2018-08-16T06:28:22.896Z,11.57
2018-08-16T06:30:52.152Z,11.90
2018-08-16T06:33:21.168Z,11.20
2018-08-16T06:35:50.377Z,10.67
2018-08-16T06:38:19.222Z,10.03
2018-08-16T06:40:47.977Z,9.63
2018-08-16T06:43:17.058Z,8.73
2018-08-16T06:45:46.152Z,8.23
2018-08-16T06:48:14.891Z,8.63
2018-08-16T06:50:43.722Z,8.27
2018-08-16T06:53:13.118Z,8.50
2018-08-16T06:55:42.076Z,7.67
2018-08-16T06:58:10.887Z,7.87
2018-08-16T07:00:40.315Z,7.53
2018-08-16T07:03:10.069Z,8.00
2018-08-16T07:05:39.232Z,7.83
2018-08-16T07:08:08.248Z,8.20
2018-08-16T07:10:37.203Z,8.83
2018-08-16T07:13:06.283Z,7.20
2018-08-16T07:15:35.095Z,7.60
2018-08-16T07:18:03.886Z,6.37
2018-08-16T07:20:32.666Z,6.87
2018-08-16T07:23:01.986Z,7.60
2018-08-16T07:25:30.818Z,7.37
2018-08-16T07:27:59.676Z,8.33
2018-08-16T07:30:28.977Z,8.43
2018-08-16T07:32:58.068Z,7.22
2018-08-16T07:35:27.333Z,7.75
2018-08-16T07:37:56.547Z,8.77
2018-08-16T07:40:25.508Z,7.53
2018-08-16T07:42:54.415Z,8.08
2018-08-16T07:45:23.142Z,8.23
2018-08-16T07:47:51.948Z,7.30
2018-08-16T07:50:20.690Z,7.53
2018-08-16T07:52:49.811Z,7.10
2018-08-16T07:55:18.660Z,8.68
2018-08-16T07:57:47.552Z,7.55
2018-08-16T08:00:18.527Z,7.22
2018-08-16T08:02:47.578Z,7.12
2018-08-16T08:05:16.484Z,7.70
2018-08-16T08:07:45.903Z,8.70
2018-08-16T08:10:14.830Z,7.55
2018-08-16T08:12:43.702Z,8.40
2018-08-16T08:15:14.226Z,8.10
2018-08-16T08:17:43.055Z,8.08
2018-08-16T08:20:13.986Z,7.55
2018-08-16T08:22:43.257Z,7.62
2018-08-16T08:25:13.512Z,9.33
2018-08-16T08:27:42.553Z,8.60
2018-08-16T08:30:14.488Z,8.10
2018-08-16T08:32:43.668Z,7.60
2018-08-16T08:35:12.809Z,8.98
2018-08-16T08:38:17.947Z,9.98
2018-08-16T08:40:46.919Z,8.13
2018-08-16T08:44:26.888Z,7.55
2018-08-16T08:46:55.603Z,7.72
2018-08-16T08:49:24.286Z,7.25
2018-08-16T08:51:54.455Z,6.78
2018-08-16T08:54:39.634Z,7.35
2018-08-16T08:57:19.948Z,7.53
2018-08-16T08:59:48.700Z,8.38
2018-08-16T09:02:17.536Z,8.38
2018-08-16T09:04:47.376Z,8.65
2018-08-16T09:07:17.408Z,5.83
2018-08-16T09:11:03.461Z,7.55
2018-08-16T09:13:43.736Z,6.30
2018-08-16T09:16:21.325Z,7.03
2018-08-16T09:18:50.611Z,6.95
2018-08-16T09:21:19.728Z,6.42
2018-08-16T09:23:48.523Z,6.22
2018-08-16T09:26:22.961Z,5.87
2018-08-16T09:28:51.935Z,5.50
2018-08-16T09:31:32.301Z,6.15
2018-08-16T09:34:21.115Z,6.10
2018-08-16T09:36:50.475Z,5.90
2018-08-16T09:39:20.003Z,6.17
2018-08-16T09:41:49.452Z,5.67
2018-08-16T09:44:18.284Z,6.83
2018-08-16T09:47:03.334Z,5.25
2018-08-16T09:49:33.598Z,5.12
2018-08-16T09:52:02.911Z,5.67
2018-08-16T09:54:31.784Z,5.87
2018-08-16T09:57:02.068Z,5.15
2018-08-16T09:59:31.191Z,5.75
2018-08-16T10:02:00.408Z,5.12
2018-08-16T10:04:29.593Z,5.30
2018-08-16T10:06:58.743Z,5.45
2018-08-16T10:09:28.908Z,5.40
2018-08-16T10:11:58.815Z,6.20
2018-08-16T10:14:27.786Z,4.58
2018-08-16T10:16:56.672Z,4.72
2018-08-16T10:19:26.115Z,9.20
2018-08-16T10:21:55.494Z,5.37
2018-08-16T10:24:24.267Z,5.75
2018-08-16T10:26:53.597Z,5.17
2018-08-16T10:29:22.602Z,5.00
2018-08-16T10:31:51.467Z,5.28
2018-08-16T10:34:20.493Z,4.75
2018-08-16T10:36:49.447Z,5.40
2018-08-16T10:39:19.139Z,5.60
2018-08-16T10:41:48.570Z,4.78
2018-08-16T10:44:17.531Z,5.60
2018-08-16T10:46:46.325Z,5.80
2018-08-16T10:49:15.312Z,5.97
2018-08-16T10:51:44.126Z,4.50
2018-08-16T10:54:12.959Z,4.50
2018-08-16T10:56:42.431Z,6.35
2018-08-16T10:59:11.733Z,4.30
2018-08-16T11:01:40.680Z,4.62
2018-08-16T11:04:09.818Z,4.42
2018-08-16T11:06:38.782Z,5.08
2018-08-16T11:09:09.422Z,4.95
2018-08-16T11:11:39.146Z,4.55
2018-08-16T11:14:08.171Z,5.10
2018-08-16T11:16:36.878Z,5.10
2018-08-16T11:19:05.995Z,4.80
2018-08-16T11:21:34.777Z,5.37
2018-08-16T11:24:03.899Z,5.55
2018-08-16T11:26:32.910Z,6.85
2018-08-16T11:29:01.894Z,5.35
2018-08-16T11:31:30.574Z,5.20
2018-08-16T11:33:59.864Z,6.17
2018-08-16T11:36:29.118Z,4.75
2018-08-16T11:38:58.178Z,5.45
2018-08-16T11:41:27.394Z,5.45
2018-08-16T11:43:57.178Z,5.22
2018-08-16T11:46:25.900Z,4.58
2018-08-16T11:48:54.850Z,4.53
2018-08-16T11:51:23.935Z,4.53
2018-08-16T11:53:52.951Z,3.92
2018-08-16T11:56:22.079Z,4.55
2018-08-16T11:58:50.996Z,4.92
2018-08-16T12:01:20.033Z,5.17
2018-08-16T12:03:49.580Z,4.62
2018-08-16T12:06:18.273Z,4.83
2018-08-16T12:08:47.387Z,4.47
2018-08-16T12:11:16.689Z,5.50
2018-08-16T12:13:45.395Z,4.80
2018-08-16T12:16:14.239Z,5.00
2018-08-16T12:18:43.019Z,4.30
2018-08-16T12:21:12.147Z,4.92
2018-08-16T12:23:41.247Z,4.65
2018-08-16T12:26:10.034Z,4.97
2018-08-16T12:28:39.051Z,5.22
2018-08-16T12:31:08.162Z,5.12
2018-08-16T12:33:37.388Z,5.22
2018-08-16T12:36:06.978Z,5.05
2018-08-16T12:38:35.921Z,4.53
2018-08-16T12:41:05.405Z,4.83
2018-08-16T12:43:36.054Z,5.25
2018-08-16T12:46:05.179Z,4.67
2018-08-16T12:48:34.202Z,5.03
2018-08-16T12:51:03.004Z,6.15
2018-08-16T12:53:32.236Z,5.90
2018-08-16T12:56:01.517Z,5.50
2018-08-16T12:58:30.381Z,5.28
2018-08-16T13:00:59.138Z,5.15
2018-08-16T13:03:28.386Z,4.90
2018-08-16T13:05:57.478Z,5.33
2018-08-16T13:08:26.701Z,5.62
2018-08-16T13:10:55.953Z,5.22
2018-08-16T13:13:24.723Z,4.90
2018-08-16T13:15:53.653Z,5.00
2018-08-16T13:18:22.401Z,5.55
2018-08-16T13:20:51.662Z,4.65
2018-08-16T13:23:20.544Z,5.42
2018-08-16T13:25:49.536Z,4.37
2018-08-16T13:28:18.630Z,5.30
2018-08-16T13:30:47.698Z,4.60
2018-08-16T13:33:16.690Z,5.00
2018-08-16T13:35:46.227Z,6.37
2018-08-16T13:38:15.120Z,5.17
2018-08-16T13:40:44.133Z,5.17
2018-08-16T13:43:13.319Z,4.97
2018-08-16T13:45:41.999Z,5.55
2018-08-16T13:48:10.759Z,6.00
2018-08-16T13:50:40.228Z,4.22
2018-08-16T13:53:09.402Z,4.78
2018-08-16T13:55:38.499Z,5.03
2018-08-16T13:58:07.910Z,4.65
2018-08-16T14:00:37.134Z,4.85
2018-08-16T14:03:06.176Z,5.22
2018-08-16T14:05:37.003Z,4.65
2018-08-16T14:08:06.130Z,4.58
2018-08-16T14:10:35.755Z,7.53
2018-08-16T14:13:04.675Z,5.22
2018-08-16T14:15:33.563Z,4.92
2018-08-16T14:18:02.863Z,4.90
2018-08-16T14:20:31.814Z,4.53
2018-08-16T14:23:00.600Z,4.83
2018-08-16T14:25:29.945Z,4.55
2018-08-16T14:27:58.912Z,4.92
2018-08-16T14:30:27.935Z,4.67
2018-08-16T14:32:57.343Z,5.15
2018-08-16T14:35:26.235Z,8.00
2018-08-16T14:37:55.115Z,5.70
2018-08-16T14:40:24.380Z,5.10
2018-08-16T14:42:53.342Z,4.50
2018-08-16T14:45:22.448Z,4.22
2018-08-16T14:47:52.011Z,5.33
2018-08-16T14:50:21.174Z,4.45
2018-08-16T14:52:50.156Z,4.60
2018-08-16T14:55:19.820Z,4.62
2018-08-16T14:57:48.580Z,5.60
2018-08-16T15:00:17.895Z,5.53
2018-08-16T15:02:46.974Z,4.75
2018-08-16T15:05:16.000Z,5.17
2018-08-16T15:07:45.053Z,4.33
2018-08-16T15:10:14.217Z,4.30
2018-08-16T15:12:42.918Z,4.35
2018-08-16T15:15:11.739Z,4.50
2018-08-16T15:17:40.867Z,4.87
2018-08-16T15:20:10.699Z,4.50
2018-08-16T15:22:39.639Z,4.75
2018-08-16T15:25:09.268Z,5.20
2018-08-16T15:27:38.093Z,5.12
2018-08-16T15:30:07.956Z,4.33
2018-08-16T15:32:37.286Z,4.40
2018-08-16T15:35:06.411Z,4.80
2018-08-16T15:37:35.381Z,3.75
2018-08-16T15:40:04.483Z,4.62
2018-08-16T15:42:33.252Z,5.15
2018-08-16T15:45:02.065Z,6.08
2018-08-16T15:47:31.534Z,4.97
2018-08-16T15:50:00.738Z,4.10
2018-08-16T15:52:29.761Z,4.75
2018-08-16T15:54:59.037Z,4.58
2018-08-16T15:57:28.180Z,4.28
2018-08-16T15:59:57.015Z,5.50
2018-08-16T16:02:25.959Z,4.78
2018-08-16T16:04:54.628Z,5.12
2018-08-16T16:07:23.505Z,6.20
2018-08-16T16:09:52.663Z,5.47
2018-08-16T16:12:21.343Z,4.75
2018-08-16T16:14:50.128Z,4.85
2018-08-16T16:17:19.181Z,4.58
2018-08-16T16:19:48.150Z,4.45
2018-08-16T16:22:17.128Z,4.70
2018-08-16T16:24:46.190Z,4.55
2018-08-16T16:27:15.167Z,3.70
2018-08-16T16:29:43.834Z,3.75
2018-08-16T16:32:12.662Z,4.87
2018-08-16T16:34:41.475Z,5.22
2018-08-16T16:37:10.188Z,4.92
2018-08-16T16:39:39.271Z,5.45
2018-08-16T16:42:08.194Z,3.87
2018-08-16T16:44:37.195Z,5.17
2018-08-16T16:47:07.331Z,5.12
2018-08-16T16:49:36.183Z,4.50
2018-08-16T16:52:05.203Z,5.22
2018-08-16T16:54:34.426Z,5.00
2018-08-16T16:57:03.589Z,4.97
2018-08-16T16:59:32.327Z,4.60
2018-08-16T17:02:01.856Z,4.97
2018-08-16T17:04:30.867Z,5.28
2018-08-16T17:06:59.646Z,5.90
2018-08-16T17:09:28.792Z,5.40
2018-08-16T17:11:57.842Z,4.30
2018-08-16T17:14:26.939Z,5.12
2018-08-16T17:16:56.445Z,5.80
2018-08-16T17:19:25.415Z,6.42
2018-08-16T17:21:54.162Z,6.22
2018-08-16T17:24:23.149Z,6.33
2018-08-16T17:26:52.000Z,5.65
2018-08-16T17:29:20.794Z,6.05
2018-08-16T17:31:49.667Z,6.30
2018-08-16T17:34:18.342Z,8.50
2018-08-16T17:36:47.111Z,7.17
2018-08-16T17:39:16.025Z,8.78
2018-08-16T17:41:44.887Z,7.42
2018-08-16T17:44:13.806Z,7.40
2018-08-16T17:46:43.060Z,7.20
2018-08-16T17:49:12.219Z,7.40
2018-08-16T17:51:40.817Z,6.70
2018-08-16T17:54:09.506Z,6.37
2018-08-16T17:56:38.222Z,5.40
2018-08-16T17:59:07.086Z,5.65
2018-08-16T18:01:36.695Z,5.92
2018-08-16T18:04:05.659Z,6.15
2018-08-16T18:06:34.427Z,5.78
2018-08-16T18:09:03.867Z,5.90
2018-08-16T18:11:32.743Z,6.62
2018-08-16T18:14:01.853Z,6.55
2018-08-16T18:16:31.155Z,5.85
2018-08-16T18:19:00.194Z,6.78
2018-08-16T18:21:29.339Z,6.58
2018-08-16T18:23:58.712Z,7.25
2018-08-16T18:26:28.166Z,7.10
2018-08-16T18:28:57.473Z,7.40
2018-08-16T18:31:27.179Z,7.15
2018-08-16T18:33:55.947Z,8.63
2018-08-16T18:36:24.904Z,9.20
2018-08-16T18:38:54.199Z,6.70
2018-08-16T18:41:23.304Z,9.35
2018-08-16T18:43:52.828Z,6.53
2018-08-16T18:46:22.816Z,6.92
2018-08-16T18:48:51.842Z,7.33
2018-08-16T18:51:20.683Z,8.73
2018-08-16T18:53:49.802Z,8.48
2018-08-16T18:56:18.864Z,9.30
2018-08-16T18:58:47.794Z,7.60
2018-08-16T19:01:17.122Z,8.20
2018-08-16T19:03:45.810Z,15.08
2018-08-16T19:06:14.543Z,14.87
2018-08-16T19:08:43.554Z,11.90
2018-08-16T19:11:12.648Z,9.67
2018-08-16T19:13:41.526Z,8.03
2018-08-16T19:16:10.362Z,9.43
2018-08-16T19:18:39.099Z,8.90
2018-08-16T19:21:07.788Z,8.67
2018-08-16T19:23:36.724Z,8.50
2018-08-16T19:26:05.556Z,9.37
2018-08-16T19:28:34.500Z,7.30
2018-08-16T19:31:03.679Z,8.00
2018-08-16T19:33:32.414Z,7.70
2018-08-16T19:36:01.187Z,8.63
2018-08-16T19:38:30.375Z,7.00
2018-08-16T19:40:59.454Z,7.23
2018-08-16T19:43:28.179Z,8.47
2018-08-16T19:45:57.218Z,7.50
2018-08-16T19:48:26.395Z,7.77
2018-08-16T19:50:55.249Z,7.77
2018-08-16T19:53:24.252Z,6.57
2018-08-16T19:55:53.086Z,7.33
2018-08-16T19:58:21.832Z,6.90
2018-08-16T20:00:51.373Z,8.37
2018-08-16T20:03:20.035Z,7.73
2018-08-16T20:05:48.834Z,8.17
2018-08-16T20:08:17.861Z,8.57
2018-08-16T20:10:47.045Z,8.97
2018-08-16T20:13:16.125Z,8.13
2018-08-16T20:15:45.343Z,8.10
2018-08-16T20:18:14.549Z,7.10
2018-08-16T20:20:43.280Z,8.40
2018-08-16T20:23:12.477Z,7.37
2018-08-16T20:25:41.476Z,8.70
2018-08-16T20:28:10.421Z,6.77
2018-08-16T20:30:39.739Z,7.97
2018-08-16T20:33:08.466Z,8.20
2018-08-16T20:35:37.231Z,8.63
2018-08-16T20:38:06.348Z,9.10
2018-08-16T20:40:35.196Z,8.63
2018-08-16T20:43:04.286Z,8.17
2018-08-16T20:45:33.501Z,9.07
2018-08-16T20:48:02.401Z,9.27
2018-08-16T20:50:31.357Z,8.30
2018-08-16T20:53:00.590Z,8.13
2018-08-16T20:55:29.457Z,7.97
2018-08-16T20:57:58.503Z,7.90
2018-08-16T21:00:27.792Z,8.57
2018-08-16T21:02:56.498Z,8.87
2018-08-16T21:05:25.259Z,8.03
2018-08-16T21:07:54.048Z,7.87
2018-08-16T21:10:23.069Z,8.50
2018-08-16T21:12:51.793Z,8.03
2018-08-16T21:15:20.725Z,7.63
2018-08-16T21:17:49.786Z,7.90
2018-08-16T21:20:18.911Z,6.53
2018-08-16T21:22:48.412Z,7.13
2018-08-16T21:25:17.336Z,7.17
2018-08-16T21:27:46.195Z,7.50
2018-08-16T21:30:15.605Z,8.30
2018-08-16T21:32:44.284Z,8.30
2018-08-16T21:35:12.986Z,7.33
2018-08-16T21:37:42.003Z,7.20
2018-08-16T21:40:10.845Z,6.90
2018-08-16T21:42:40.017Z,6.90
2018-08-16T21:45:09.304Z,8.30
2018-08-16T21:47:38.423Z,6.87
2018-08-16T21:50:08.299Z,7.97
2018-08-16T21:52:37.590Z,7.30
2018-08-16T21:55:06.400Z,7.13
2018-08-16T21:57:35.233Z,7.50
2018-08-16T22:00:04.113Z,7.73
2018-08-16T22:02:32.957Z,6.80
2018-08-16T22:05:01.794Z,6.57
2018-08-16T22:08:13.238Z,6.77
2018-08-16T22:10:43.757Z,6.80
2018-08-16T22:13:12.935Z,7.30
2018-08-16T22:15:42.021Z,6.90
2018-08-16T22:18:11.127Z,6.40
2018-08-16T22:20:40.376Z,6.13
2018-08-16T22:23:09.534Z,6.53
2018-08-16T22:25:38.820Z,6.50
2018-08-16T22:28:08.445Z,6.83
2018-08-16T22:30:37.696Z,6.90
2018-08-16T22:33:06.562Z,6.57
2018-08-16T22:35:35.922Z,6.90
2018-08-16T22:38:04.659Z,6.40
2018-08-16T22:40:33.520Z,6.87
2018-08-16T22:43:03.025Z,8.03
2018-08-16T22:45:31.859Z,6.80
2018-08-16T22:48:00.793Z,6.83
2018-08-16T22:50:29.901Z,6.43
2018-08-16T22:52:58.765Z,6.73
2018-08-16T22:55:28.056Z,7.40
2018-08-16T22:57:57.467Z,7.07
2018-08-16T23:00:26.764Z,7.27
2018-08-16T23:02:55.555Z,7.40
2018-08-16T23:05:24.646Z,7.03
2018-08-16T23:07:53.528Z,7.03
2018-08-16T23:10:22.871Z,6.80
2018-08-16T23:12:52.451Z,6.93
2018-08-16T23:15:21.531Z,6.47
2018-08-16T23:17:50.622Z,7.10
2018-08-16T23:20:20.063Z,7.17
2018-08-16T23:22:49.350Z,8.27
2018-08-16T23:25:18.551Z,7.73
2018-08-16T23:27:48.080Z,7.43
2018-08-16T23:30:17.562Z,7.33
2018-08-16T23:32:46.370Z,7.43
2018-08-16T23:35:15.515Z,8.13
2018-08-16T23:37:44.367Z,7.70
2018-08-16T23:40:14.387Z,7.00
2018-08-16T23:42:43.992Z,7.23
2018-08-16T23:45:13.027Z,7.53
2018-08-16T23:47:42.416Z,6.30
2018-08-16T23:50:12.242Z,7.77
2018-08-16T23:52:41.268Z,6.80
2018-08-16T23:55:10.475Z,6.80
2018-08-16T23:57:39.567Z,6.97
